Time;durP1;ratioP1;P1;durP2;ratioP2;P2;SDS_P1;SDS_P2;PMS_P1;PMS_P2;Temp;Humidity;BMP_temperature;BMP_pressure;BME280_temperature;BME280_humidity;BME280_pressure;Samples;Min_cycle;Max_cycle;Signal;HPM_P1;HPM_P2
2022/11/23 07:06:40;;;;;;;11.93;3.97;;;;;;;7.80;100.00;99496.66;5322548;27;20388;-66
2022/11/23 07:09:12;;;;;;;14.52;4.10;;;;;;;7.78;100.00;99503.59;5310673;28;20549;-67
2022/11/23 07:11:46;;;;;;;12.15;4.63;;;;;;;7.80;100.00;99496.66;5280120;28;20028;-67
2022/11/23 07:14:17;;;;;;;19.25;5.22;;;;;;;7.80;100.00;99502.16;5279825;28;20028;-66
2022/11/23 07:16:49;;;;;;;12.52;3.88;;;;;;;7.80;99.87;99510.44;5279349;28;20086;-66
2022/11/23 07:19:22;;;;;;;12.68;3.95;;;;;;;7.81;99.60;99508.50;5280177;28;20025;-66
2022/11/23 07:21:53;;;;;;;7.20;4.00;;;;;;;7.77;99.25;99512.97;5305705;28;20028;-66
2022/11/23 07:24:25;;;;;;;14.52;4.40;;;;;;;7.84;99.29;99524.44;5321367;28;20050;-66
2022/11/23 07:26:56;;;;;;;18.23;5.45;;;;;;;7.86;98.88;99515.88;5304249;28;20043;-66
2022/11/23 07:29:27;;;;;;;16.25;5.05;;;;;;;7.82;98.21;99519.25;5279723;28;20027;-67
2022/11/23 07:31:59;;;;;;;10.35;3.28;;;;;;;7.80;98.09;99521.47;5299253;28;20510;-66
2022/11/23 07:34:30;;;;;;;9.68;3.40;;;;;;;7.78;98.39;99523.72;5300564;28;20123;-67
2022/11/23 07:37:03;;;;;;;13.80;5.47;;;;;;;7.74;98.43;99530.16;5299728;28;20028;-67
2022/11/23 07:39:34;;;;;;;11.07;4.32;;;;;;;7.79;98.61;99535.56;5300589;28;20025;-66
2022/11/23 07:42:05;;;;;;;12.45;4.22;;;;;;;7.76;97.70;99534.25;5298392;28;20463;-66
2022/11/23 07:44:37;;;;;;;10.65;3.63;;;;;;;7.79;97.58;99541.91;5285023;28;20037;-67
2022/11/23 07:47:08;;;;;;;15.25;4.70;;;;;;;7.79;96.96;99541.91;5287354;28;20021;-67
2022/11/23 07:49:39;;;;;;;9.45;3.55;;;;;;;7.77;96.93;99546.94;5300189;28;20036;-67
2022/11/23 07:52:11;;;;;;;9.23;4.07;;;;;;;7.78;96.55;99556.84;5299746;28;20025;-67
2022/11/23 07:54:42;;;;;;;10.35;4.10;;;;;;;7.78;96.92;99551.31;5300168;28;20024;-66
2022/11/23 07:57:13;;;;;;;17.33;4.20;;;;;;;7.77;96.10;99559.91;5300046;28;20458;-67
2022/11/23 07:59:47;;;;;;;8.45;3.25;;;;;;;7.80;96.28;99562.06;5299311;28;20417;-66
2022/11/23 08:02:20;;;;;;;12.93;4.10;;;;;;;7.79;95.94;99563.19;5280372;28;20032;-67
2022/11/23 08:04:51;;;;;;;12.88;4.82;;;;;;;7.78;95.89;99567.88;5278353;28;20150;-67
2022/11/23 08:07:22;;;;;;;20.98;4.80;;;;;;;7.78;95.71;99562.38;5278179;28;20032;-67
2022/11/23 08:09:53;;;;;;;7.57;3.47;;;;;;;7.78;95.56;99559.59;5278885;28;20020;-66
2022/11/23 08:12:25;;;;;;;14.05;4.70;;;;;;;7.72;94.85;99558.06;5277684;28;20809;-66
2022/11/23 08:14:56;;;;;;;10.02;3.70;;;;;;;7.78;95.19;99564.31;5278973;28;20467;-66
2022/11/23 08:17:27;;;;;;;10.13;4.22;;;;;;;7.70;95.32;99563.06;5279701;28;20044;-67
2022/11/23 08:19:58;;;;;;;11.43;3.75;;;;;;;7.79;94.72;99557.66;5264738;28;20020;-66
2022/11/23 08:22:30;;;;;;;13.85;5.75;;;;;;;7.75;94.58;99560.22;5264678;28;20067;-66
2022/11/23 08:25:01;;;;;;;13.43;3.63;;;;;;;7.73;94.63;99559.69;5273918;28;20028;-67
2022/11/23 08:27:32;;;;;;;9.30;4.18;;;;;;;7.82;95.76;99562.56;5282604;28;20047;-67
2022/11/23 08:30:04;;;;;;;13.27;4.20;;;;;;;7.84;95.62;99558.38;5284948;28;20067;-67
2022/11/23 08:32:36;;;;;;;6.00;3.70;;;;;;;8.34;99.51;99562.47;5285147;28;20020;-68
2022/11/23 08:35:07;;;;;;;16.23;5.10;;;;;;;8.01;94.37;99566.09;5274160;28;20053;-70
2022/11/23 08:37:38;;;;;;;12.18;4.93;;;;;;;8.06;93.66;99562.44;5264335;28;20029;-69
2022/11/23 08:40:10;;;;;;;10.65;3.95;;;;;;;8.02;93.52;99573.25;5264916;28;20025;-69
2022/11/23 08:42:41;;;;;;;12.10;4.18;;;;;;;8.00;92.75;99575.50;5264679;28;20029;-68
2022/11/23 08:45:13;;;;;;;11.75;4.20;;;;;;;7.98;92.19;99571.41;5284823;28;20089;-69
2022/11/23 08:47:44;;;;;;;7.35;3.55;;;;;;;8.00;92.49;99580.19;5283984;28;20355;-69
2022/11/23 08:50:16;;;;;;;10.40;3.47;;;;;;;7.98;92.46;99571.41;5269424;28;20033;-69
2022/11/23 08:52:54;;;;;;;7.63;2.85;;;;;;;8.02;92.87;99572.44;5279917;28;20499;-69
2022/11/23 08:55:26;;;;;;;9.15;3.60;;;;;;;8.00;92.20;99570.00;5283787;28;20021;-70
2022/11/23 08:57:58;;;;;;;11.55;4.05;;;;;;;8.00;92.03;99572.75;5285118;28;20024;-69
2022/11/23 09:00:29;;;;;;;14.20;3.22;;;;;;;8.01;91.81;99571.63;5273571;28;20036;-68
2022/11/23 09:03:01;;;;;;;14.23;9.23;;;;;;;8.07;92.08;99569.59;5263344;28;20099;-69
2022/11/23 09:05:32;;;;;;;10.68;3.83;;;;;;;8.07;91.58;99564.06;5263722;28;20045;-70
2022/11/23 09:08:04;;;;;;;10.68;4.40;;;;;;;8.12;91.42;99563.16;5264651;28;20041;-69
2022/11/23 09:10:36;;;;;;;12.25;3.58;;;;;;;8.10;91.54;99557.91;5262829;28;20029;-68
2022/11/23 09:13:07;;;;;;;11.98;3.42;;;;;;;8.08;90.87;99560.19;5263693;28;20044;-69
2022/11/23 09:15:39;;;;;;;7.43;3.20;;;;;;;8.15;91.52;99555.06;5262563;28;20020;-69
2022/11/23 09:18:10;;;;;;;10.43;3.53;;;;;;;8.16;90.58;99562.25;5263751;28;20033;-68
2022/11/23 09:20:44;;;;;;;10.82;3.03;;;;;;;8.12;89.89;99563.97;5263768;28;20017;-69
2022/11/23 09:23:16;;;;;;;10.38;3.55;;;;;;;8.07;90.38;99555.78;5262539;28;20048;-69
2022/11/23 09:25:48;;;;;;;16.33;6.65;;;;;;;8.10;90.46;99548.81;5267910;28;20459;-69
2022/11/23 09:28:21;;;;;;;12.93;3.08;;;;;;;8.14;90.43;99549.88;5283670;28;20530;-69
2022/11/23 09:30:56;;;;;;;10.63;3.72;;;;;;;8.17;90.92;99547.31;5276533;28;20021;-67
2022/11/23 09:33:27;;;;;;;12.80;3.33;;;;;;;8.17;90.38;99538.19;5265089;28;20478;-66
2022/11/23 09:36:00;;;;;;;6.00;2.83;;;;;;;8.15;90.28;99544.03;5278797;28;20117;-67
2022/11/23 09:38:32;;;;;;;8.80;3.65;;;;;;;8.14;89.62;99542.41;5283178;28;20033;-67
2022/11/23 09:41:18;;;;;;;11.05;3.30;;;;;;;8.15;89.46;99538.50;5284216;28;20031;-67
2022/11/23 09:43:52;;;;;;;8.80;3.38;;;;;;;8.16;89.59;99531.88;5267068;28;20029;-68
2022/11/23 09:46:45;;;;;;;9.13;3.45;;;;;;;8.15;89.56;99527.44;5263427;28;20127;-68
2022/11/23 09:49:22;;;;;;;9.80;3.25;;;;;;;8.16;89.17;99515.28;5279127;28;20033;-68
2022/11/23 09:51:55;;;;;;;9.93;3.35;;;;;;;8.20;89.69;99521.00;5278100;28;20032;-68
2022/11/23 09:54:35;;;;;;;9.57;2.92;;;;;;;8.23;89.08;99512.09;5283525;28;20020;-67
2022/11/23 09:57:14;;;;;;;7.68;3.70;;;;;;;8.21;88.70;99512.44;5283762;28;20116;-68
2022/11/23 09:59:52;;;;;;;10.40;3.53;;;;;;;8.27;89.07;99513.97;5274514;28;20023;-68
2022/11/23 10:02:27;;;;;;;10.57;3.63;;;;;;;8.33;88.74;99500.84;5264860;28;20422;-68
2022/11/23 10:05:00;;;;;;;11.15;3.15;;;;;;;8.32;88.41;99499.22;5261540;28;20425;-68
2022/11/23 10:07:48;;;;;;;9.55;3.17;;;;;;;8.37;88.58;99498.31;5266805;28;20056;-68
2022/11/23 10:10:42;;;;;;;7.25;2.95;;;;;;;8.40;88.46;99489.44;5279303;28;20025;-68
2022/11/23 10:13:29;;;;;;;5.57;3.22;;;;;;;8.45;87.93;99486.56;5282355;28;20024;-67
2022/11/23 10:16:18;;;;;;;8.35;2.92;;;;;;;8.48;87.63;99481.22;5282641;28;20043;-68
2022/11/23 10:19:02;;;;;;;10.38;3.88;;;;;;;8.53;87.62;99485.03;5281553;28;20025;-67
2022/11/23 10:21:43;;;;;;;6.97;2.80;;;;;;;8.56;87.37;99487.97;5282804;28;20118;-67
2022/11/23 10:24:24;;;;;;;14.20;7.07;;;;;;;8.58;87.33;99477.44;5282918;28;20087;-67
2022/11/23 10:26:57;;;;;;;7.38;2.53;;;;;;;8.65;86.34;99483.38;5282034;28;20095;-67
2022/11/23 10:29:37;;;;;;;6.05;2.55;;;;;;;8.70;87.02;99486.00;5282808;28;20060;-67
2022/11/23 10:32:36;;;;;;;10.15;3.22;;;;;;;8.78;87.22;99478.13;5282953;28;20387;-67
2022/11/23 10:35:17;;;;;;;6.68;3.10;;;;;;;8.79;87.18;99480.56;5263580;28;20112;-68
2022/11/23 10:37:48;;;;;;;9.38;3.80;;;;;;;8.90;86.64;99489.47;5262411;28;20055;-67
2022/11/23 10:40:28;;;;;;;9.05;3.30;;;;;;;8.83;85.91;99489.06;5277983;28;20040;-67
2022/11/23 10:43:05;;;;;;;13.93;3.35;;;;;;;8.86;86.60;99477.38;5283273;28;20033;-67
2022/11/23 10:45:37;;;;;;;9.20;2.65;;;;;;;8.89;85.97;99468.44;5282883;28;20032;-68
2022/11/23 10:48:08;;;;;;;9.18;3.47;;;;;;;8.95;85.97;99478.28;5281389;28;20020;-68
2022/11/23 10:50:40;;;;;;;11.10;2.88;;;;;;;8.93;85.93;99475.00;5276280;28;20035;-70
2022/11/23 10:53:21;;;;;;;8.90;2.60;;;;;;;8.94;85.03;99482.16;5266768;28;20024;-70
2022/11/23 10:55:58;;;;;;;8.70;2.90;;;;;;;8.92;85.68;99473.34;5281882;28;20013;-70
2022/11/23 10:58:35;;;;;;;18.20;11.35;;;;;;;9.02;85.68;99473.13;5282690;28;20091;-69
2022/11/23 11:01:15;;;;;;;8.93;2.88;;;;;;;9.08;85.87;99460.00;5281709;28;20478;-72
2022/11/23 11:03:46;;;;;;;7.38;2.88;;;;;;;9.09;85.16;99462.44;5282932;28;20047;-71
2022/11/23 11:06:26;;;;;;;5.13;2.65;;;;;;;9.15;84.56;99452.06;5270074;28;20052;-71
2022/11/23 11:09:00;;;;;;;8.23;2.38;;;;;;;9.23;85.39;99447.72;5262160;28;20029;-71
2022/11/23 11:11:35;;;;;;;6.93;2.67;;;;;;;9.24;84.10;99446.63;5261119;28;20028;-72
2022/11/23 11:14:22;;;;;;;7.95;2.40;;;;;;;9.32;84.43;99437.56;5270551;28;20328;-72
2022/11/23 11:16:56;;;;;;;10.43;2.60;;;;;;;9.27;84.54;99437.69;5281690;28;20445;-72
2022/11/23 11:19:33;;;;;;;6.13;2.70;;;;;;;9.27;83.60;99445.97;5282290;28;20023;-72
2022/11/23 11:22:24;;;;;;;8.98;2.75;;;;;;;9.27;84.23;99444.03;5281626;28;20040;-72
2022/11/23 11:24:55;;;;;;;7.32;2.70;;;;;;;9.25;83.34;99442.69;5274006;28;20439;-71
2022/11/23 11:27:29;;;;;;;5.88;2.30;;;;;;;9.27;84.09;99430.19;5261897;28;20021;-72
2022/11/23 11:30:06;;;;;;;6.35;2.05;;;;;;;9.32;83.58;99420.94;5278389;28;20037;-72
2022/11/23 11:32:48;;;;;;;7.50;2.42;;;;;;;9.40;83.54;99416.59;5274859;28;20059;-72
2022/11/23 11:35:26;;;;;;;6.53;2.50;;;;;;;9.49;83.74;99410.00;5281931;28;20017;-71
2022/11/23 11:38:26;;;;;;;7.60;2.00;;;;;;;9.57;83.09;99417.50;5280568;28;20052;-71
2022/11/23 11:41:01;;;;;;;5.93;2.17;;;;;;;9.55;81.34;99400.41;5282218;28;20059;-72
2022/11/23 11:43:43;;;;;;;10.30;3.45;;;;;;;9.60;82.14;99406.94;5260867;28;20551;-73
2022/11/23 11:46:20;;;;;;;8.15;2.95;;;;;;;9.65;81.71;99395.75;5261270;28;20052;-71
2022/11/23 11:49:05;;;;;;;10.55;3.15;;;;;;;9.73;82.23;99390.22;5261386;28;20029;-72
2022/11/23 11:51:45;;;;;;;9.38;1.95;;;;;;;9.79;82.04;99377.91;5261509;28;20028;-73
2022/11/23 11:54:27;;;;;;;8.30;2.47;;;;;;;9.84;80.24;99382.44;5265032;28;20021;-73
2022/11/23 11:57:06;;;;;;;6.28;2.20;;;;;;;9.87;78.92;99379.06;5265369;28;20044;-71
2022/11/23 11:59:47;;;;;;;24.52;17.73;;;;;;;9.96;78.63;99368.81;5264958;28;20506;-71
2022/11/23 12:02:32;;;;;;;5.50;2.53;;;;;;;9.97;77.45;99378.78;5272710;28;20032;-71
2022/11/23 12:05:18;;;;;;;6.60;2.13;;;;;;;10.10;78.09;99377.00;5282841;28;20055;-71
2022/11/23 12:08:07;;;;;;;5.18;2.13;;;;;;;10.22;78.43;99363.31;5285289;28;20036;-72
2022/11/23 12:10:41;;;;;;;5.53;1.83;;;;;;;10.27;78.08;99370.66;5285888;28;20427;-71
2022/11/23 12:13:21;;;;;;;2.08;1.75;;;;;;;10.37;77.68;99367.63;5284959;28;20032;-69
2022/11/23 12:16:23;;;;;;;6.45;1.75;;;;;;;10.38;76.99;99358.19;5281051;28;20020;-66
2022/11/23 12:19:17;;;;;;;4.78;1.50;;;;;;;10.40;77.64;99366.97;5284559;28;20125;-67
2022/11/23 12:22:06;;;;;;;6.07;2.40;;;;;;;10.39;77.55;99354.25;5285234;28;20042;-68
2022/11/23 12:24:53;;;;;;;4.65;1.63;;;;;;;10.43;77.95;99355.25;5284350;28;20024;-69
2022/11/23 12:27:42;;;;;;;8.90;1.90;;;;;;;10.49;76.25;99352.31;5284336;28;20028;-68
2022/11/23 12:30:26;;;;;;;4.80;1.77;;;;;;;10.43;76.59;99348.88;5285440;28;20032;-68
2022/11/23 12:33:25;;;;;;;4.50;1.42;;;;;;;10.59;80.82;99355.56;5275183;28;20057;-69
2022/11/23 12:36:35;;;;;;;7.68;1.95;;;;;;;10.52;76.88;99341.38;5264444;28;20040;-68
2022/11/23 12:39:24;;;;;;;5.15;1.65;;;;;;;10.45;75.68;99341.06;5240319;28;20040;-69
2022/11/23 12:42:15;;;;;;;46.95;37.15;;;;;;;10.48;76.41;99329.34;5273134;28;20134;-67
2022/11/23 12:44:56;;;;;;;9.68;4.55;;;;;;;10.50;76.26;99338.13;5284982;28;20035;-67
2022/11/23 12:47:39;;;;;;;5.20;1.80;;;;;;;10.48;75.13;99337.66;5274657;28;20088;-68
2022/11/23 12:50:22;;;;;;;7.40;2.03;;;;;;;10.53;75.82;99337.50;5281086;28;20434;-67
2022/11/23 12:53:44;;;;;;;3.58;1.73;;;;;;;10.54;78.02;99333.56;5285010;28;20065;-67
2022/11/23 12:56:21;;;;;;;3.83;2.38;;;;;;;10.59;76.75;99329.81;5269709;28;20056;-66
2022/11/23 12:58:54;;;;;;;5.18;2.20;;;;;;;10.53;74.99;99326.41;5278833;28;20143;-68
2022/11/23 13:01:33;;;;;;;5.00;1.65;;;;;;;10.49;75.64;99324.59;5283829;28;20383;-67
2022/11/23 13:04:23;;;;;;;7.28;1.98;;;;;;;10.48;75.71;99326.56;5283024;28;20032;-68
2022/11/23 13:07:14;;;;;;;3.05;1.50;;;;;;;10.50;77.18;99321.50;5276258;28;20399;-68
2022/11/23 13:10:40;;;;;;;5.82;2.72;;;;;;;10.54;75.87;99327.22;5262017;28;20044;-69
2022/11/23 13:13:31;;;;;;;3.92;2.67;;;;;;;10.50;75.73;99326.22;5199567;28;20034;-67
2022/11/23 13:16:16;;;;;;;6.45;1.60;;;;;;;10.45;74.92;99336.31;5265087;28;20035;-69
2022/11/23 13:19:01;;;;;;;4.72;1.67;;;;;;;10.42;75.18;99334.19;5283400;28;20064;-68
2022/11/23 13:21:37;;;;;;;3.58;1.75;;;;;;;10.44;75.29;99339.44;5301108;28;20116;-66
2022/11/23 13:24:30;;;;;;;6.57;2.60;;;;;;;10.42;75.99;99339.75;5288102;28;20025;-68
2022/11/23 13:27:13;;;;;;;7.38;2.60;;;;;;;10.50;76.44;99343.66;5281289;28;20024;-68
2022/11/23 13:29:47;;;;;;;6.18;1.65;;;;;;;10.41;75.96;99343.66;5278338;28;20107;-69
2022/11/23 13:32:37;;;;;;;5.05;1.75;;;;;;;10.54;76.67;99352.16;5262358;28;20464;-68
2022/11/23 13:35:17;;;;;;;4.85;1.60;;;;;;;10.49;76.47;99352.31;5263105;28;20074;-68
2022/11/23 13:38:14;;;;;;;4.35;1.95;;;;;;;10.68;76.52;99361.09;5263207;28;20040;-68
2022/11/23 13:40:46;;;;;;;3.05;1.60;;;;;;;10.57;75.52;99366.16;5248147;28;20494;-68
2022/11/23 13:43:19;;;;;;;5.95;1.90;;;;;;;10.63;77.03;99372.38;5280569;28;20028;-71
2022/11/23 13:46:29;;;;;;;4.07;1.70;;;;;;;10.55;78.80;99367.63;5262781;28;20463;-68
2022/11/23 13:49:00;;;;;;;6.43;5.28;;;;;;;10.42;81.83;99381.31;5218841;28;20034;-69
2022/11/23 13:51:34;;;;;;;4.07;1.50;;;;;;;10.32;82.96;99381.63;5207243;28;20481;-68
2022/11/23 13:54:20;;;;;;;5.13;2.10;;;;;;;10.21;84.85;99389.41;5261661;28;20032;-70
2022/11/23 13:57:10;;;;;;;6.30;3.70;;;;;;;10.13;87.00;99406.03;5282550;28;20367;-70
2022/11/23 13:59:41;;;;;;;5.25;1.85;;;;;;;9.92;88.25;99401.06;5277317;28;20089;-70
2022/11/23 14:02:15;;;;;;;5.13;3.30;;;;;;;9.88;90.39;99389.00;5262974;28;20028;-70
2022/11/23 14:04:47;;;;;;;8.38;3.10;;;;;;;9.79;91.60;99402.81;5261243;28;20155;-71
2022/11/23 14:07:25;;;;;;;6.93;2.05;;;;;;;9.76;92.58;99408.16;5276141;28;20108;-69
2022/11/23 14:10:04;;;;;;;17.02;2.85;;;;;;;9.72;93.87;99404.41;5283027;28;20094;-70
2022/11/23 14:12:46;;;;;;;5.93;2.15;;;;;;;9.56;95.36;99404.81;5281054;28;20108;-69
2022/11/23 14:15:18;;;;;;;9.45;6.82;;;;;;;9.49;96.56;99403.66;5276213;28;20035;-70
2022/11/23 14:18:22;;;;;;;3.15;2.05;;;;;;;9.58;97.54;99418.31;5283128;28;20368;-70
2022/11/23 14:21:06;;;;;;;5.53;2.10;;;;;;;9.51;97.64;99424.34;5282702;28;20032;-70
2022/11/23 14:24:14;;;;;;;8.73;2.95;;;;;;;9.58;98.82;99429.41;5282892;28;20020;-70
2022/11/23 14:27:00;;;;;;;5.60;2.70;;;;;;;9.51;98.69;99431.78;5262522;28;20049;-70
2022/11/23 14:29:53;;;;;;;7.65;3.05;;;;;;;9.54;99.13;99440.28;5281949;28;20498;-69
2022/11/23 14:32:38;;;;;;;6.70;3.30;;;;;;;9.52;99.48;99442.56;5262187;28;20033;-70
2022/11/23 14:35:21;;;;;;;6.90;3.00;;;;;;;9.45;99.41;99441.38;5262196;28;20108;-69
2022/11/23 14:38:12;;;;;;;6.75;2.42;;;;;;;9.47;100.00;99445.47;5270456;28;20028;-70
2022/11/23 14:40:58;;;;;;;6.05;3.30;;;;;;;9.41;100.00;99451.44;5270782;28;20079;-70
2022/11/23 14:43:32;;;;;;;7.05;3.40;;;;;;;9.40;100.00;99455.34;5276022;28;20058;-70
2022/11/23 14:46:05;;;;;;;5.20;2.70;;;;;;;9.39;100.00;99460.06;5281736;28;20028;-70
2022/11/23 14:48:37;;;;;;;6.20;2.30;;;;;;;9.36;100.00;99467.03;5278292;28;20431;-69
2022/11/23 14:51:15;;;;;;;4.30;2.22;;;;;;;9.37;100.00;99465.09;5279611;28;20032;-70
2022/11/23 14:53:50;;;;;;;5.28;1.92;;;;;;;9.34;100.00;99465.72;5281882;28;20392;-70
2022/11/23 14:56:45;;;;;;;13.00;8.67;;;;;;;9.32;100.00;99462.44;5282598;28;20051;-70
2022/11/23 14:59:16;;;;;;;6.78;3.53;;;;;;;9.16;100.00;99467.56;5283133;28;20328;-71
2022/11/23 15:01:51;;;;;;;4.68;2.50;;;;;;;9.18;100.00;99494.88;5279991;28;20024;-69
2022/11/23 15:04:35;;;;;;;4.78;2.70;;;;;;;9.22;100.00;99485.66;5281752;28;20028;-69
2022/11/23 15:07:20;;;;;;;4.78;2.90;;;;;;;9.17;100.00;99490.50;5271563;28;20529;-70
2022/11/23 15:10:12;;;;;;;2.47;1.70;;;;;;;9.21;100.00;99491.50;5281509;28;20443;-69
2022/11/23 15:12:46;;;;;;;6.72;2.22;;;;;;;9.12;100.00;99489.47;5282366;28;20037;-70
2022/11/23 15:15:26;;;;;;;3.42;2.13;;;;;;;9.19;100.00;99493.75;5280847;28;20032;-69
2022/11/23 15:18:04;;;;;;;3.70;2.30;;;;;;;9.19;100.00;99480.75;5282458;28;20033;-69
2022/11/23 15:20:44;;;;;;;9.52;3.75;;;;;;;9.25;100.00;99479.47;5281657;28;20106;-69
2022/11/23 15:23:23;;;;;;;11.48;4.95;;;;;;;9.19;100.00;99471.63;5270025;28;20040;-69
2022/11/23 15:25:57;;;;;;;5.47;2.83;;;;;;;9.21;100.00;99463.84;5274045;28;20040;-69
2022/11/23 15:28:30;;;;;;;5.35;2.00;;;;;;;9.19;100.00;99466.09;5285885;28;20044;-69
2022/11/23 15:31:16;;;;;;;5.97;3.15;;;;;;;9.22;100.00;99473.78;5284410;28;20379;-69
2022/11/23 15:33:49;;;;;;;4.28;2.47;;;;;;;9.14;100.00;99470.63;5265736;28;20094;-69
2022/11/23 15:36:25;;;;;;;3.63;2.25;;;;;;;9.17;100.00;99479.44;5279011;28;20047;-70
2022/11/23 15:39:00;;;;;;;14.73;11.70;;;;;;;9.18;100.00;99483.81;5285510;28;20052;-69
2022/11/23 15:41:32;;;;;;;5.60;2.97;;;;;;;9.17;100.00;99473.91;5284296;28;20101;-68
2022/11/23 15:44:40;;;;;;;4.95;2.45;;;;;;;9.12;100.00;99447.16;5285074;28;20374;-69
2022/11/23 15:47:17;;;;;;;3.50;2.00;;;;;;;9.04;100.00;99432.16;5283351;28;20060;-69
2022/11/23 15:49:49;;;;;;;6.45;2.40;;;;;;;9.09;100.00;99450.56;5284374;28;20028;-69
2022/11/23 15:52:21;;;;;;;3.20;2.08;;;;;;;9.23;100.00;99495.59;5286275;28;20029;-67
2022/11/23 15:54:52;;;;;;;4.45;2.60;;;;;;;8.98;100.00;99510.03;5278026;28;20037;-69
2022/11/23 15:57:25;;;;;;;3.38;2.17;;;;;;;8.98;100.00;99515.56;5286247;28;20455;-69
2022/11/23 16:00:02;;;;;;;3.33;1.90;;;;;;;8.94;100.00;99515.34;5289676;28;20106;-69
2022/11/23 16:02:35;;;;;;;5.70;3.00;;;;;;;8.98;100.00;99505.31;5271521;28;20483;-69
2022/11/23 16:05:14;;;;;;;5.82;2.78;;;;;;;8.94;100.00;99515.34;5282211;28;20048;-70
2022/11/23 16:08:00;;;;;;;6.20;4.30;;;;;;;8.93;100.00;99519.25;5282884;28;20036;-70
2022/11/23 16:10:32;;;;;;;;;;;;;;;9.03;100.00;99520.97;5283633;28;20024;-69
2022/11/23 16:13:05;;;;;;;6.07;2.88;;;;;;;8.93;100.00;99535.84;5283691;28;20003;-69
2022/11/23 16:15:47;;;;;;;4.45;3.38;;;;;;;8.90;100.00;99542.81;5274138;28;20032;-67
2022/11/23 16:18:26;;;;;;;3.75;2.38;;;;;;;8.90;100.00;99555.81;5284692;28;20078;-69
2022/11/23 16:21:03;;;;;;;4.25;2.70;;;;;;;8.83;100.00;99569.25;5270772;28;20103;-71
2022/11/23 16:23:48;;;;;;;5.10;2.50;;;;;;;8.80;100.00;99569.88;5264520;28;20029;-72
2022/11/23 16:26:28;;;;;;;4.95;3.33;;;;;;;8.83;100.00;99577.53;5263896;28;20036;-72
2022/11/23 16:29:00;;;;;;;4.72;2.30;;;;;;;8.81;100.00;99582.53;5270376;28;20039;-71
2022/11/23 16:31:36;;;;;;;6.35;2.55;;;;;;;8.76;100.00;99586.22;5283385;28;20027;-69
2022/11/23 16:34:11;;;;;;;2.75;2.17;;;;;;;8.67;100.00;99583.38;5283571;28;20422;-69
2022/11/23 16:36:44;;;;;;;4.00;2.90;;;;;;;8.78;100.00;99583.16;5285204;28;20035;-69
